Terminal Aerodrome Forecast
Issued by NWS Dodge City, KS

Home | Current Version | Previous Version | Text Only | Print | Product List | Glossary On
Versions: 1 2 3 4 5 6 7 8 9 10 11 12 13 14 15 16 17
000
FTUS43 KDDC 201100 CCA
TAFDDC
TAF COR
KDDC 201142Z 2012/2112 18012KT P6SM SCT040 BKN080
      TEMPO 2013/2017 5SM -SHRA BKN040
     FM201800 17014KT P6SM SCT040 BKN080
      TEMPO 2018/2022 TSRA OVC040CB
     FM210600 33010KT P6SM OVC040=

USA.gov is the U.S. government's official web portal to all federal, state and local government web resources and services.